Pagina principale
Immagini satellite Previsioni 15 giorniClimaMeteomar Cicloni Fulmine AeroportiFAQ Bollettino Informazioni
Tempo : Europa Africa America settentrionale America meridionale Asia Australia-Oceania Altri
Lingue Contatto

Genova, Italia

Sestri

latitudine: 44-25N, longitudine: 008-51E, altezza: 2 m


METAR: LIMJ 301320Z 25006KT CAVOK 19/09 Q1022
TAF: LIMJ 301100Z 3012/3112 03007KT CAVOK

Ora: 14:41 (13:41 UTC)

Osservazione

Il bollettino è stato emesso 21 minuti fa, alle 13:20 UTC
Vento 6 kt da ovest/sud-ovest
Temperature 19°C
Umidità 52%
Pressione 1022 hPa
Visibilità 10 km o più
nessuna nube inferiore a 1500 m e nessun cumulonembo

Cambiare le unità

Previsione

Il bollettino è stato emesso 2 ore e 41 minuti fa, alle 11:00 UTC
Previsione valida dal 30 alle 12 UTC al 31 alle 12 UTC
Vento 7 kt da nord/nord-est
Visibilità 10 km o più
nessuna nube inferiore a 1500 m e nessun cumulonembo
Le informazioni contenute in questo sito formano oggetto di una clausola di esclusione di responsabilità
Tempo : Europa Africa America settentrionale America meridionale Asia Australia-Oceania Altri
Immagini satellite Previsioni 15 giorniClimaMeteomar Cicloni Fulmine AeroportiFAQ Lingue Contatto Bollettino Informazioni